Time;durP1;ratioP1;P1;durP2;ratioP2;P2;SDS_P1;SDS_P2;PMS_P1;PMS_P2;Temp;Humidity;BMP_temperature;BMP_pressure;BME280_temperature;BME280_humidity;BME280_pressure;Samples;Min_cycle;Max_cycle;Signal;HPM_P1;HPM_P2
2021/10/18 00:00:39;;;;;;;;;;;;;;;8.40;71.32;98757.13;1808558;77;20219;-85
2021/10/18 00:03:05;;;;;;;;;;;;;;;8.40;71.32;98763.65;1814576;77;25100;-85
2021/10/18 00:05:31;;;;;;;;;;;;;;;8.40;71.33;98758.44;1809408;77;20219;-86
2021/10/18 00:07:57;;;;;;;;;;;;;;;8.38;71.34;98756.39;1808709;77;26115;-86
2021/10/18 00:10:23;;;;;;;;;;;;;;;8.42;71.37;98757.89;1803510;77;25208;-85
2021/10/18 00:12:50;;;;;;;;;;;;;;;8.40;71.37;98759.73;1812719;76;20206;-86
2021/10/18 00:15:17;;;;;;;;;;;;;;;8.41;71.37;98762.73;1800870;77;25145;-85
2021/10/18 00:17:45;;;;;;;;;;;;;;;8.42;71.39;98753.98;1803593;77;21981;-86
2021/10/18 00:20:11;;;;;;;;;;;;;;;8.42;71.41;98759.20;1803455;77;26748;-86
2021/10/18 00:22:37;;;;;;;;;;;;;;;8.37;71.41;98754.70;1803522;78;23827;-86
2021/10/18 00:25:04;;;;;;;;;;;;;;;8.36;71.43;98759.54;1803433;77;20546;-85
2021/10/18 00:27:30;;;;;;;;;;;;;;;8.37;71.45;98756.01;1807395;77;25210;-85
2021/10/18 00:29:56;;;;;;;;;;;;;;;8.37;71.46;98758.16;1804594;77;21975;-85
2021/10/18 00:32:22;;;;;;;;;;;;;;;8.38;71.47;98761.61;1804784;77;21083;-85
2021/10/18 00:34:48;;;;;;;;;;;;;;;8.34;71.49;98765.32;1805483;78;24508;-85
2021/10/18 00:37:14;;;;;;;;;;;;;;;8.28;71.50;98756.05;1809212;77;20515;-85
2021/10/18 00:39:41;;;;;;;;;;;;;;;8.26;71.50;98765.70;1804206;77;25109;-85
2021/10/18 00:42:07;;;;;;;;;;;;;;;8.28;71.52;98765.63;1804762;77;22054;-85
2021/10/18 00:44:37;;;;;;;;;;;;;;;8.32;71.54;98761.48;1801279;77;26071;-85
2021/10/18 00:47:03;;;;;;;;;;;;;;;8.32;71.55;98759.34;1792334;78;25252;-85
2021/10/18 00:49:29;;;;;;;;;;;;;;;8.32;71.56;98761.95;1805425;78;20218;-85
2021/10/18 00:51:57;;;;;;;;;;;;;;;8.32;71.57;98763.25;1807821;78;24936;-85
2021/10/18 00:54:24;;;;;;;;;;;;;;;8.32;71.59;98768.47;1802891;77;21909;-85
2021/10/18 00:56:50;;;;;;;;;;;;;;;8.32;71.57;98768.47;1789792;78;25153;-85
2021/10/18 00:59:16;;;;;;;;;;;;;;;8.32;71.60;98767.16;1801600;77;25450;-85
2021/10/18 01:01:44;;;;;;;;;;;;;;;8.26;71.60;98761.79;1802243;77;20508;-85
2021/10/18 01:04:11;;;;;;;;;;;;;;;8.25;71.58;98759.26;1796673;78;25734;-86
2021/10/18 01:06:40;;;;;;;;;;;;;;;8.21;71.60;98759.91;1802224;77;21636;-86
2021/10/18 01:09:06;;;;;;;;;;;;;;;8.19;71.61;98752.61;1805092;77;25958;-86
2021/10/18 01:11:32;;;;;;;;;;;;;;;8.17;71.59;98754.48;1805893;77;20336;-86
2021/10/18 01:13:58;;;;;;;;;;;;;;;8.16;71.60;98758.47;1803700;77;20250;-86
2021/10/18 01:16:24;;;;;;;;;;;;;;;8.09;71.59;98755.81;1804671;77;25047;-86
2021/10/18 01:18:50;;;;;;;;;;;;;;;8.08;71.59;98758.03;1803462;77;21983;-86
2021/10/18 01:21:16;;;;;;;;;;;;;;;8.06;71.58;98755.99;1802984;77;21920;-86
2021/10/18 01:23:42;;;;;;;;;;;;;;;8.05;71.59;98760.83;1809544;78;24604;-86
2021/10/18 01:26:08;;;;;;;;;;;;;;;7.99;71.59;98758.09;1775101;79;20243;-86
2021/10/18 01:28:35;;;;;;;;;;;;;;;7.97;71.60;98756.02;1804094;77;20212;-86
2021/10/18 01:31:01;;;;;;;;;;;;;;;7.94;71.62;98754.89;1801477;77;23033;-86
2021/10/18 01:33:27;;;;;;;;;;;;;;;7.93;71.63;98754.50;1802410;77;26115;-86
2021/10/18 01:35:53;;;;;;;;;;;;;;;7.92;71.62;98758.87;1810436;77;24436;-86
2021/10/18 01:38:20;;;;;;;;;;;;;;;7.94;71.66;98752.28;1803170;77;20317;-85
2021/10/18 01:40:47;;;;;;;;;;;;;;;7.96;71.66;98758.27;1799514;77;24990;-86
2021/10/18 01:43:14;;;;;;;;;;;;;;;7.98;71.70;98756.39;1804332;77;22000;-86
2021/10/18 01:45:40;;;;;;;;;;;;;;;8.02;71.75;98753.19;1801230;77;26110;-85
2021/10/18 01:48:06;;;;;;;;;;;;;;;8.05;71.76;98759.52;1798377;78;24483;-85
2021/10/18 01:50:32;;;;;;;;;;;;;;;8.03;71.79;98764.80;1799313;77;20181;-86
2021/10/18 01:52:58;;;;;;;;;;;;;;;8.01;71.83;98763.22;1804977;78;24968;-85
2021/10/18 01:55:24;;;;;;;;;;;;;;;8.00;71.84;98763.68;1802122;77;22883;-86
2021/10/18 01:57:51;;;;;;;;;;;;;;;7.99;71.86;98764.14;1803257;78;25936;-86
2021/10/18 02:00:17;;;;;;;;;;;;;;;7.95;71.89;98759.19;1797875;77;24961;-86
2021/10/18 02:02:44;;;;;;;;;;;;;;;7.93;71.91;98758.41;1800689;77;20571;-86
2021/10/18 02:05:10;;;;;;;;;;;;;;;7.94;71.93;98766.16;1803626;79;25041;-85
2021/10/18 02:07:36;;;;;;;;;;;;;;;7.93;71.96;98757.95;1809931;77;22114;-86
2021/10/18 02:10:02;;;;;;;;;;;;;;;7.90;71.99;98759.44;1800882;77;26061;-86
2021/10/18 02:12:28;;;;;;;;;;;;;;;7.91;72.05;98751.97;1772829;79;24486;-85
2021/10/18 02:14:54;;;;;;;;;;;;;;;7.92;72.07;98754.12;1777262;79;20235;-86
2021/10/18 02:17:20;;;;;;;;;;;;;;;7.92;72.11;98757.57;1775349;79;24946;-86
2021/10/18 02:19:47;;;;;;;;;;;;;;;7.88;72.11;98760.42;1774090;79;22888;-86
2021/10/18 02:22:13;;;;;;;;;;;;;;;7.85;72.15;98759.30;1768206;79;26164;-86
2021/10/18 02:24:39;;;;;;;;;;;;;;;7.84;72.19;98762.37;1770900;79;24404;-86
2021/10/18 02:27:05;;;;;;;;;;;;;;;7.81;72.25;98765.12;1766152;80;20832;-86
2021/10/18 02:29:31;;;;;;;;;;;;;;;7.80;72.29;98760.83;1776528;80;25028;-86
2021/10/18 02:31:57;;;;;;;;;;;;;;;7.79;72.32;98763.08;1777076;79;22047;-86
2021/10/18 02:34:23;;;;;;;;;;;;;;;7.73;72.34;98762.55;1771738;80;21025;-86
2021/10/18 02:36:49;;;;;;;;;;;;;;;7.72;72.38;98760.87;1779820;79;20245;-86
2021/10/18 02:39:16;;;;;;;;;;;;;;;7.70;72.41;98760.94;1783748;79;20843;-86
2021/10/18 02:41:42;;;;;;;;;;;;;;;7.69;72.44;98758.44;1784299;79;25077;-86
2021/10/18 02:44:09;;;;;;;;;;;;;;;7.71;72.47;98763.09;1779340;79;21939;-86
2021/10/18 02:46:35;;;;;;;;;;;;;;;7.70;72.50;98762.70;1782589;79;25787;-86
2021/10/18 02:49:05;;;;;;;;;;;;;;;7.73;72.55;98760.80;1781922;79;24539;-86
2021/10/18 02:51:29;;;;;;;;;;;;;;;7.76;72.61;98760.62;1781191;80;20240;-86
2021/10/18 02:53:55;;;;;;;;;;;;;;;7.79;72.67;98759.17;1768438;79;20295;-86
2021/10/18 02:56:21;;;;;;;;;;;;;;;7.79;72.71;98764.38;1781358;79;21967;-85
2021/10/18 02:58:47;;;;;;;;;;;;;;;7.79;72.76;98767.44;1780126;80;26055;-85
2021/10/18 03:01:13;;;;;;;;;;;;;;;7.79;72.82;98762.23;1781388;79;24470;-86
2021/10/18 03:03:40;;;;;;;;;;;;;;;7.83;72.86;98759.84;1783467;79;20239;-86
2021/10/18 03:06:06;;;;;;;;;;;;;;;7.84;72.91;98761.06;1783509;79;25929;-85
2021/10/18 03:08:32;;;;;;;;;;;;;;;7.86;72.95;98763.11;1781384;79;22137;-85
2021/10/18 03:10:58;;;;;;;;;;;;;;;7.89;73.02;98752.54;1788442;77;26033;-85
2021/10/18 03:13:24;;;;;;;;;;;;;;;7.94;73.05;98750.98;1811111;78;20346;-86
2021/10/18 03:15:50;;;;;;;;;;;;;;;7.93;73.10;98750.14;1824446;77;20446;-86
2021/10/18 03:18:16;;;;;;;;;;;;;;;7.94;73.17;98749.67;1825065;77;25129;-85
2021/10/18 03:20:43;;;;;;;;;;;;;;;7.92;73.20;98754.12;1815441;78;22111;-85
2021/10/18 03:23:09;;;;;;;;;;;;;;;7.88;73.22;98755.22;1826202;78;26140;-86
2021/10/18 03:25:35;;;;;;;;;;;;;;;7.86;73.24;98754.45;1780800;78;24433;-85
2021/10/18 03:28:02;;;;;;;;;;;;;;;7.86;73.27;98753.98;1829056;78;20401;-85
2021/10/18 03:30:28;;;;;;;;;;;;;;;7.88;73.31;98757.83;1829795;77;25043;-86
2021/10/18 03:32:54;;;;;;;;;;;;;;;7.82;73.33;98760.30;1819948;78;22047;-85
2021/10/18 03:35:20;;;;;;;;;;;;;;;7.79;73.34;98768.29;1811594;78;26027;-85
2021/10/18 03:37:46;;;;;;;;;;;;;;;7.76;73.33;98771.04;1774882;79;24477;-86
2021/10/18 03:40:13;;;;;;;;;;;;;;;7.74;73.34;98769.00;1824410;77;20202;-85
2021/10/18 03:42:39;;;;;;;;;;;;;;;7.76;73.39;98769.73;1825688;77;25240;-85
2021/10/18 03:45:07;;;;;;;;;;;;;;;7.77;73.42;98774.48;1822029;77;22057;-86
2021/10/18 03:47:34;;;;;;;;;;;;;;;7.76;73.50;98785.37;1828903;77;26092;-85
2021/10/18 03:50:00;;;;;;;;;;;;;;;7.76;73.54;98786.67;1816031;78;25282;-85
2021/10/18 03:52:26;;;;;;;;;;;;;;;7.74;73.55;98785.92;1822473;78;20617;-86
2021/10/18 03:54:52;;;;;;;;;;;;;;;7.73;73.60;98793.36;1833944;77;25112;-85
2021/10/18 03:57:18;;;;;;;;;;;;;;;7.76;73.65;98791.88;1828620;76;22036;-86
2021/10/18 03:59:45;;;;;;;;;;;;;;;7.81;73.70;98791.17;1835287;76;25908;-86
2021/10/18 04:02:10;;;;;;;;;;;;;;;7.90;73.76;98793.77;1826448;77;20276;-86
2021/10/18 04:04:37;;;;;;;;;;;;;;;7.90;73.82;98800.28;1812447;78;20841;-85
2021/10/18 04:07:03;;;;;;;;;;;;;;;7.86;73.83;98801.34;1773829;79;24913;-86
2021/10/18 04:09:29;;;;;;;;;;;;;;;7.84;73.85;98796.23;1785364;78;21929;-86
2021/10/18 04:11:55;;;;;;;;;;;;;;;7.82;73.88;98798.07;1781021;78;26003;-86
2021/10/18 04:14:21;;;;;;;;;;;;;;;7.86;73.91;98800.05;1783537;79;20227;-86
2021/10/18 04:16:47;;;;;;;;;;;;;;;7.85;73.94;98803.14;1793513;78;20256;-86
2021/10/18 04:19:13;;;;;;;;;;;;;;;7.85;73.97;98808.81;1789073;78;24941;-86
2021/10/18 04:21:39;;;;;;;;;;;;;;;7.84;74.00;98814.48;1794450;78;20304;-85
2021/10/18 04:24:05;;;;;;;;;;;;;;;7.87;74.03;98826.03;1792664;78;25919;-86
2021/10/18 04:26:31;;;;;;;;;;;;;;;7.84;74.07;98824.91;1787461;78;24381;-86
2021/10/18 04:28:58;;;;;;;;;;;;;;;7.84;74.11;98824.05;1797411;78;20185;-85
2021/10/18 04:31:25;;;;;;;;;;;;;;;7.83;74.15;98824.97;1795693;78;24926;-86
2021/10/18 04:33:52;;;;;;;;;;;;;;;7.83;74.21;98832.78;1794042;78;22005;-85
2021/10/18 04:36:18;;;;;;;;;;;;;;;7.84;74.23;98835.33;1788274;78;26064;-85
2021/10/18 04:38:44;;;;;;;;;;;;;;;7.87;74.28;98846.88;1796194;78;24422;-85
2021/10/18 04:41:10;;;;;;;;;;;;;;;7.89;74.30;98850.25;1785809;78;20360;-85
2021/10/18 04:43:37;;;;;;;;;;;;;;;7.91;74.34;98847.55;1786116;78;25623;-84
2021/10/18 04:46:03;;;;;;;;;;;;;;;7.95;74.38;98843.42;1793760;78;22116;-85
2021/10/18 04:48:29;;;;;;;;;;;;;;;8.01;74.40;98840.95;1793285;78;26005;-85
2021/10/18 04:50:55;;;;;;;;;;;;;;;8.08;74.44;98842.75;1796362;78;20874;-85
2021/10/18 04:53:21;;;;;;;;;;;;;;;8.09;74.50;98838.77;1791660;78;20262;-85
2021/10/18 04:55:49;;;;;;;;;;;;;;;8.11;74.54;98846.52;1794364;78;25113;-85
2021/10/18 04:58:15;;;;;;;;;;;;;;;8.16;74.58;98848.41;1788827;78;21994;-85
2021/10/18 05:00:46;;;;;;;;;;;;;;;8.19;74.60;98849.08;1787776;78;26149;-86
2021/10/18 05:03:12;;;;;;;;;;;;;;;8.24;74.61;98855.34;1783826;78;25098;-86
2021/10/18 05:05:39;;;;;;;;;;;;;;;8.27;74.62;98859.95;1781674;78;20229;-86
2021/10/18 05:08:07;;;;;;;;;;;;;;;8.26;74.64;98863.94;1797021;78;26611;-86
2021/10/18 05:10:36;;;;;;;;;;;;;;;8.27;74.63;98870.38;1795029;78;22188;-86
2021/10/18 05:13:03;;;;;;;;;;;;;;;8.25;74.60;98871.37;1790973;78;25966;-86
2021/10/18 05:15:35;;;;;;;;;;;;;;;8.26;74.62;98880.88;1823778;77;24664;-86
2021/10/18 05:18:01;;;;;;;;;;;;;;;8.23;74.61;98882.36;1821121;77;20284;-86
2021/10/18 05:20:32;;;;;;;;;;;;;;;8.23;74.61;98888.42;1828613;76;25042;-86
2021/10/18 05:22:58;;;;;;;;;;;;;;;8.19;74.62;98888.64;1819362;77;21957;-86
2021/10/18 05:25:30;;;;;;;;;;;;;;;8.17;74.60;98898.33;1820143;77;27378;-86
2021/10/18 05:27:57;;;;;;;;;;;;;;;8.16;74.63;98897.94;1821971;78;24517;-86
2021/10/18 05:30:25;;;;;;;;;;;;;;;8.13;74.62;98908.05;1802467;76;20304;-86
2021/10/18 05:32:52;;;;;;;;;;;;;;;8.10;74.64;98902.17;1822762;77;20244;-87
2021/10/18 05:35:18;;;;;;;;;;;;;;;8.06;74.66;98904.56;1815406;77;22275;-86
2021/10/18 05:37:45;;;;;;;;;;;;;;;8.05;74.69;98908.93;1810000;78;26020;-86
2021/10/18 05:40:12;;;;;;;;;;;;;;;8.03;74.71;98913.37;1782439;78;25278;-86
2021/10/18 05:42:38;;;;;;;;;;;;;;;8.02;74.80;98918.69;1803490;77;20469;-86
2021/10/18 05:45:05;;;;;;;;;;;;;;;8.00;74.87;98925.27;1799929;77;25708;-86
2021/10/18 05:47:31;;;;;;;;;;;;;;;8.02;74.96;98919.98;1812027;78;21922;-86
2021/10/18 05:49:59;;;;;;;;;;;;;;;8.00;75.04;98921.36;1822698;77;21010;-86
2021/10/18 05:52:26;;;;;;;;;;;;;;;8.03;75.14;98926.86;1825966;77;24611;-87
2021/10/18 05:54:53;;;;;;;;;;;;;;;8.02;75.22;98931.72;1813486;78;20743;-86
2021/10/18 05:57:19;;;;;;;;;;;;;;;8.02;75.33;98934.32;1804185;78;24974;-86
2021/10/18 05:59:45;;;;;;;;;;;;;;;8.01;75.42;98934.78;1785814;79;21890;-86
2021/10/18 06:02:11;;;;;;;;;;;;;;;7.98;75.49;98938.38;1821020;77;26039;-86
2021/10/18 06:04:42;;;;;;;;;;;;;;;7.99;75.60;98940.52;1827711;76;20324;-87
2021/10/18 06:07:07;;;;;;;;;;;;;;;8.01;75.70;98945.66;1824671;78;20208;-87
2021/10/18 06:09:33;;;;;;;;;;;;;;;8.04;75.81;98945.48;1820583;77;25087;-87
2021/10/18 06:11:59;;;;;;;;;;;;;;;8.06;75.93;98945.81;1820320;77;20885;-86
2021/10/18 06:14:25;;;;;;;;;;;;;;;8.05;75.99;98952.39;1813115;79;21162;-86
2021/10/18 06:16:51;;;;;;;;;;;;;;;8.07;76.10;98952.72;1810998;77;24521;-87
2021/10/18 06:19:17;;;;;;;;;;;;;;;8.11;76.19;98948.17;1805041;79;20285;-87
2021/10/18 06:21:43;;;;;;;;;;;;;;;8.14;76.30;98954.06;1802366;78;20315;-87
2021/10/18 06:24:10;;;;;;;;;;;;;;;8.15;76.41;98950.99;1808432;79;22060;-86
2021/10/18 06:26:36;;;;;;;;;;;;;;;8.16;76.48;98957.44;1808896;78;25876;-86
2021/10/18 06:29:02;;;;;;;;;;;;;;;8.16;76.59;98961.81;1808339;79;20312;-87
2021/10/18 06:31:28;;;;;;;;;;;;;;;8.19;76.68;98966.85;1802688;78;20500;-86
2021/10/18 06:33:54;;;;;;;;;;;;;;;8.22;76.76;98970.63;1807857;79;25040;-87
2021/10/18 06:36:20;;;;;;;;;;;;;;;8.24;76.84;98973.97;1808894;78;20784;-86
2021/10/18 06:38:46;;;;;;;;;;;;;;;8.26;76.95;98974.29;1807572;78;26023;-86
2021/10/18 06:44:15;;;;;;;;;;;;;;;8.27;77.11;98975.98;1768294;79;20511;-87
2021/10/18 06:46:41;;;;;;;;;;;;;;;8.32;77.22;98975.77;1766930;80;24414;-87
2021/10/18 06:49:08;;;;;;;;;;;;;;;8.38;77.32;98980.67;1804686;79;22215;-87
2021/10/18 06:51:42;;;;;;;;;;;;;;;8.35;77.41;98978.20;1779364;78;25870;-86
2021/10/18 06:54:04;;;;;;;;;;;;;;;8.38;77.49;98981.97;1764367;79;24480;-86
2021/10/18 06:56:36;;;;;;;;;;;;;;;8.40;77.59;98979.65;1760505;80;20159;-86
2021/10/18 06:59:02;;;;;;;;;;;;;;;8.46;77.66;98983.70;1794495;78;25222;-86
2021/10/18 07:01:27;;;;;;;;;;;;;;;8.51;77.75;98981.69;1794146;79;20280;-86
2021/10/18 07:03:53;;;;;;;;;;;;;;;8.56;77.81;98991.45;1811329;77;21002;-86
2021/10/18 07:06:19;;;;;;;;;;;;;;;8.55;77.91;98991.52;1802512;79;24633;-85
2021/10/18 07:08:45;;;;;;;;;;;;;;;8.50;77.97;98993.08;1808429;79;20261;-87
2021/10/18 07:11:11;;;;;;;;;;;;;;;8.51;78.03;98999.14;1810164;77;25626;-87
2021/10/18 07:13:38;;;;;;;;;;;;;;;8.57;78.14;98997.02;1816277;78;20304;-87
2021/10/18 07:16:04;;;;;;;;;;;;;;;8.62;78.22;98998.11;1783623;79;26029;-86
2021/10/18 07:18:30;;;;;;;;;;;;;;;8.67;78.31;98996.91;1768381;79;24539;-86
2021/10/18 07:20:56;;;;;;;;;;;;;;;8.66;78.41;99000.47;1813080;77;20341;-86
2021/10/18 07:23:23;;;;;;;;;;;;;;;8.70;78.50;99003.75;1818644;77;25085;-86
2021/10/18 07:25:49;;;;;;;;;;;;;;;8.69;78.58;99009.43;1819722;78;21939;-86
2021/10/18 07:28:16;;;;;;;;;;;;;;;8.71;78.65;99017.19;1814823;77;25932;-87
2021/10/18 07:30:44;;;;;;;;;;;;;;;8.70;78.75;99011.13;1824512;77;24523;-86
2021/10/18 07:33:10;;;;;;;;;;;;;;;8.70;78.82;99016.34;1821931;77;20262;-86
2021/10/18 07:35:36;;;;;;;;;;;;;;;8.72;78.87;99018.42;1821500;78;25104;-88
2021/10/18 07:38:04;;;;;;;;;;;;;;;8.74;78.94;99023.08;1821974;77;22105;-86
2021/10/18 07:40:31;;;;;;;;;;;;;;;8.76;79.01;99023.84;1822504;77;26696;-86
2021/10/18 07:42:57;;;;;;;;;;;;;;;8.76;79.07;99026.91;1786338;78;24141;-86
2021/10/18 07:45:23;;;;;;;;;;;;;;;8.76;79.14;99025.15;1785431;79;20286;-86
2021/10/18 07:47:50;;;;;;;;;;;;;;;8.73;79.19;99024.45;1788831;78;25056;-86
2021/10/18 07:50:16;;;;;;;;;;;;;;;8.73;79.23;99028.36;1797595;78;22017;-86
2021/10/18 07:52:43;;;;;;;;;;;;;;;8.73;79.31;99035.73;1781282;79;25963;-86
2021/10/18 07:55:18;;;;;;;;;;;;;;;8.77;79.39;99040.34;1808246;78;24658;-86
2021/10/18 07:57:49;;;;;;;;;;;;;;;8.82;79.46;99050.08;1820356;77;20257;-87
2021/10/18 08:00:16;;;;;;;;;;;;;;;8.82;79.52;99046.17;1822690;77;25206;-86
2021/10/18 08:02:42;;;;;;;;;;;;;;;8.82;79.62;99044.86;1823386;77;21938;-87
2021/10/18 08:05:16;;;;;;;;;;;;;;;8.82;79.66;99048.77;1819997;78;21035;-87
2021/10/18 08:07:41;;;;;;;;;;;;;;;8.85;79.73;99053.81;1820545;78;37648;-86
2021/10/18 08:10:08;;;;;;;;;;;;;;;8.84;79.77;99046.91;1823408;77;20285;-86
2021/10/18 08:12:35;;;;;;;;;;;;;;;8.84;79.85;99053.43;1819171;77;25003;-87
2021/10/18 08:15:03;;;;;;;;;;;;;;;8.85;79.90;99051.67;1818591;77;22046;-87
2021/10/18 08:17:35;;;;;;;;;;;;;;;8.84;79.97;99052.12;1822593;77;26640;-87
2021/10/18 08:20:02;;;;;;;;;;;;;;;8.88;80.05;99048.91;1825520;77;24611;-87
2021/10/18 08:22:28;;;;;;;;;;;;;;;8.93;80.11;99052.12;1826818;77;20238;-87
2021/10/18 08:24:54;;;;;;;;;;;;;;;8.97;80.19;99053.63;1825144;77;24989;-87
2021/10/18 08:27:20;;;;;;;;;;;;;;;8.99;80.25;99053.10;1821127;77;21933;-86
2021/10/18 08:29:46;;;;;;;;;;;;;;;8.99;80.29;99054.41;1772590;78;20832;-87
2021/10/18 08:32:12;;;;;;;;;;;;;;;9.03;80.37;99057.23;1803059;78;25054;-86
2021/10/18 08:34:39;;;;;;;;;;;;;;;9.04;80.43;99055.84;1804719;78;20218;-86
2021/10/18 08:37:04;;;;;;;;;;;;;;;9.09;80.50;99060.36;1805607;77;24940;-86
2021/10/18 08:42:28;;;;;;;;;;;;;;;9.12;80.65;99058.03;1822672;77;26012;-86
2021/10/18 08:44:50;;;;;;;;;;;;;;;9.11;80.74;99056.37;1821260;78;24462;-86
2021/10/18 08:47:16;;;;;;;;;;;;;;;9.11;80.79;99057.67;1805707;76;20864;-86
2021/10/18 08:49:42;;;;;;;;;;;;;;;9.11;80.86;99062.89;1774524;79;25146;-86
2021/10/18 08:52:09;;;;;;;;;;;;;;;9.10;80.92;99065.12;1805064;78;21932;-85
2021/10/18 08:54:35;;;;;;;;;;;;;;;9.09;80.98;99065.58;1787264;78;25940;-86
2021/10/18 08:57:35;;;;;;;;;;;;;;;9.15;81.04;99065.71;1803104;78;24541;-86
2021/10/18 09:00:04;;;;;;;;;;;;;;;9.14;81.12;99067.48;1767997;79;20438;-86
2021/10/18 09:02:36;;;;;;;;;;;;;;;9.17;81.21;99072.98;1774875;79;24983;-86
2021/10/18 09:05:04;;;;;;;;;;;;;;;9.17;81.27;99074.28;1772163;79;21975;-86
2021/10/18 09:07:33;;;;;;;;;;;;;;;9.17;81.33;99074.28;1821723;76;26020;-86
2021/10/18 09:10:00;;;;;;;;;;;;;;;9.19;81.40;99073.30;1823193;76;24512;-86
2021/10/18 09:12:27;;;;;;;;;;;;;;;9.25;81.47;99074.73;1818391;77;20225;-86
2021/10/18 09:14:54;;;;;;;;;;;;;;;9.29;81.51;99068.87;1806339;79;25339;-86
2021/10/18 09:17:33;;;;;;;;;;;;;;;9.32;81.61;99075.25;1809765;79;21959;-86
2021/10/18 09:20:17;;;;;;;;;;;;;;;9.36;81.68;99075.45;1810555;77;26091;-86
2021/10/18 09:22:44;;;;;;;;;;;;;;;9.43;81.74;99072.89;1802251;79;24529;-85
2021/10/18 09:25:10;;;;;;;;;;;;;;;9.51;81.79;99079.37;1809798;78;20240;-86
2021/10/18 09:27:36;;;;;;;;;;;;;;;9.48;81.85;99070.41;1790227;79;25131;-86
2021/10/18 09:30:02;;;;;;;;;;;;;;;9.50;81.89;99068.53;1771000;79;20379;-86
2021/10/18 09:32:30;;;;;;;;;;;;;;;9.54;81.94;99076.61;1809323;79;25968;-86
2021/10/18 09:35:10;;;;;;;;;;;;;;;9.53;81.99;99076.22;1806089;77;25268;-86
2021/10/18 09:37:37;;;;;;;;;;;;;;;9.52;82.00;99073.22;1803917;78;20234;-86
2021/10/18 09:40:05;;;;;;;;;;;;;;;9.49;82.04;99070.76;1799349;78;20302;-86
2021/10/18 09:42:31;;;;;;;;;;;;;;;9.48;82.07;99070.87;1796173;78;22050;-87
2021/10/18 10:54:10;;;;;;;;;;;;;;;10.05;83.33;99095.48;1807958;79;26148;-87
2021/10/18 10:56:59;;;;;;;;;;;;;;;10.04;83.37;99093.80;1807594;78;25164;-87
2021/10/18 10:59:23;;;;;;;;;;;;;;;10.02;83.40;99095.22;1797660;78;20335;-87
2021/10/18 11:01:54;;;;;;;;;;;;;;;9.99;83.42;99097.14;1797257;78;25146;-86
2021/10/18 11:04:31;;;;;;;;;;;;;;;9.97;83.44;99092.03;1800184;78;22014;-87
2021/10/18 11:07:02;;;;;;;;;;;;;;;10.01;83.48;99090.06;1801335;78;25933;-87
2021/10/18 11:09:35;;;;;;;;;;;;;;;10.01;83.50;99091.38;1798868;78;24404;-87
2021/10/18 11:12:01;;;;;;;;;;;;;;;9.99;83.54;99086.69;1798528;78;20219;-87
2021/10/18 11:14:27;;;;;;;;;;;;;;;9.99;83.55;99086.69;1809633;78;20274;-87
2021/10/18 11:17:00;;;;;;;;;;;;;;;9.97;83.58;99092.03;1766505;79;20224;-87
2021/10/18 11:19:34;;;;;;;;;;;;;;;9.94;83.60;99093.48;1804939;78;26070;-86
2021/10/18 11:22:01;;;;;;;;;;;;;;;9.93;83.60;99087.03;1803445;77;24457;-87
2021/10/18 11:24:40;;;;;;;;;;;;;;;9.94;83.66;99088.72;1804534;77;20285;-87
2021/10/18 11:27:07;;;;;;;;;;;;;;;9.94;83.66;99087.41;1822554;77;25030;-87
2021/10/18 11:29:33;;;;;;;;;;;;;;;9.92;83.68;99091.45;1814364;78;22153;-86
2021/10/18 11:32:07;;;;;;;;;;;;;;;9.96;83.71;99095.56;1802663;78;26067;-86
2021/10/18 11:34:33;;;;;;;;;;;;;;;9.96;83.76;99093.41;1801777;78;24401;-87
2021/10/18 11:37:04;;;;;;;;;;;;;;;9.95;83.79;99087.80;1770542;79;20241;-87
2021/10/18 11:39:32;;;;;;;;;;;;;;;9.98;83.84;99086.33;1801018;77;24893;-87
2021/10/18 11:42:08;;;;;;;;;;;;;;;9.98;83.87;99086.33;1823618;77;22051;-87
2021/10/18 11:44:38;;;;;;;;;;;;;;;9.99;83.90;99084.91;1822030;77;25989;-87
2021/10/18 11:47:05;;;;;;;;;;;;;;;10.02;83.96;99082.14;1810591;78;23830;-87
2021/10/18 11:49:31;;;;;;;;;;;;;;;10.06;83.99;99080.19;1803833;78;20271;-86
2021/10/18 11:51:57;;;;;;;;;;;;;;;10.11;84.04;99082.06;1806830;78;24962;-86
2021/10/18 11:54:23;;;;;;;;;;;;;;;10.17;84.12;99079.59;1807103;78;20774;-86
2021/10/18 11:56:58;;;;;;;;;;;;;;;10.22;84.17;99078.40;1804460;78;26041;-86
2021/10/18 11:59:25;;;;;;;;;;;;;;;10.23;84.23;99080.55;1792006;77;24546;-87
2021/10/18 12:01:51;;;;;;;;;;;;;;;10.25;84.29;99084.78;1808905;77;20451;-87
2021/10/18 12:04:17;;;;;;;;;;;;;;;10.30;84.33;99082.73;1803863;78;20325;-87
2021/10/18 12:06:46;;;;;;;;;;;;;;;10.35;84.38;99083.30;1803863;78;22114;-86
2021/10/18 12:09:14;;;;;;;;;;;;;;;10.44;84.43;99081.45;1773606;79;25989;-87
2021/10/18 12:11:40;;;;;;;;;;;;;;;10.49;84.49;99087.71;1768685;79;24445;-87
2021/10/18 12:14:07;;;;;;;;;;;;;;;10.53;84.50;99084.47;1790702;78;20351;-87
2021/10/18 12:16:36;;;;;;;;;;;;;;;10.56;84.54;99088.20;1795170;78;25071;-87
2021/10/18 12:19:02;;;;;;;;;;;;;;;10.57;84.54;99089.89;1729004;82;22203;-87
2021/10/18 12:21:32;;;;;;;;;;;;;;;10.56;84.55;99092.13;1773935;79;26558;-86
2021/10/18 12:23:59;;;;;;;;;;;;;;;10.53;84.57;99093.13;1772156;79;24005;-87
2021/10/18 12:26:26;;;;;;;;;;;;;;;10.52;84.58;99093.25;1769236;79;20479;-85
2021/10/18 12:29:05;;;;;;;;;;;;;;;10.51;84.58;99088.94;1773118;79;25749;-86
2021/10/18 12:31:33;;;;;;;;;;;;;;;10.53;84.57;99094.94;1737200;82;22166;-86
2021/10/18 12:34:17;;;;;;;;;;;;;;;10.55;84.57;99093.05;1761639;79;26110;-86
2021/10/18 12:36:49;;;;;;;;;;;;;;;10.51;84.58;99087.63;1775188;79;24477;-86
2021/10/18 12:39:17;;;;;;;;;;;;;;;10.40;84.56;99087.80;1739609;80;20297;-87
2021/10/18 12:41:43;;;;;;;;;;;;;;;10.35;84.55;99092.92;1740934;81;25044;-86
2021/10/18 12:44:12;;;;;;;;;;;;;;;10.33;84.56;99091.70;1775148;79;20290;-86
2021/10/18 12:46:39;;;;;;;;;;;;;;;10.30;84.57;99097.12;1745035;81;26042;-86
2021/10/18 12:49:06;;;;;;;;;;;;;;;10.33;84.56;99094.31;1755701;80;24474;-86
2021/10/18 12:51:37;;;;;;;;;;;;;;;10.33;84.61;99095.63;1772186;79;20245;-87
2021/10/18 12:54:21;;;;;;;;;;;;;;;10.35;84.64;99092.46;1771790;79;24998;-86
2021/10/18 12:57:00;;;;;;;;;;;;;;;10.34;84.65;99088.16;1770108;80;22629;-86
2021/10/18 12:59:26;;;;;;;;;;;;;;;10.39;84.68;99090.50;1739275;82;26179;-87
2021/10/18 13:02:11;;;;;;;;;;;;;;;10.44;84.70;99085.84;1743723;80;24533;-86
2021/10/18 13:04:37;;;;;;;;;;;;;;;10.51;84.73;99090.25;1777677;79;20217;-86
2021/10/18 13:07:03;;;;;;;;;;;;;;;10.59;84.75;99091.93;1771898;80;20750;-86
2021/10/18 13:09:29;;;;;;;;;;;;;;;10.62;84.78;99089.15;1771842;79;21936;-86
2021/10/18 13:11:55;;;;;;;;;;;;;;;10.62;84.79;99087.37;1766293;80;26084;-86
2021/10/18 13:14:21;;;;;;;;;;;;;;;10.67;84.83;99092.33;1773679;79;24415;-86
2021/10/18 13:16:47;;;;;;;;;;;;;;;10.71;84.86;99098.59;1778429;79;20252;-86
2021/10/18 13:19:13;;;;;;;;;;;;;;;10.71;84.86;99102.98;1749964;81;25113;-86
2021/10/18 13:21:39;;;;;;;;;;;;;;;10.70;84.86;99097.37;1752405;80;20221;-87
2021/10/18 13:24:06;;;;;;;;;;;;;;;10.71;84.86;99102.98;1745218;80;26669;-86
2021/10/18 13:26:32;;;;;;;;;;;;;;;10.74;84.86;99103.66;1769354;79;24518;-85
2021/10/18 13:28:58;;;;;;;;;;;;;;;10.81;84.85;99107.58;1769227;79;20598;-86
2021/10/18 13:31:24;;;;;;;;;;;;;;;10.83;84.87;99107.03;1722732;81;20282;-86
2021/10/18 13:33:50;;;;;;;;;;;;;;;10.87;84.87;99099.82;1779706;80;21948;-86
2021/10/18 13:36:16;;;;;;;;;;;;;;;10.92;84.88;99106.93;1780879;78;26112;-86
2021/10/18 13:38:42;;;;;;;;;;;;;;;10.97;84.89;99102.72;1779458;78;20310;-86
2021/10/18 13:41:08;;;;;;;;;;;;;;;10.98;84.91;99109.64;1772350;79;20240;-86
2021/10/18 13:43:35;;;;;;;;;;;;;;;10.99;84.91;99108.72;1781881;79;20267;-86
2021/10/18 13:46:02;;;;;;;;;;;;;;;10.98;84.87;99109.18;1775787;78;21911;-86
2021/10/18 13:48:28;;;;;;;;;;;;;;;10.99;84.85;99112.18;1774261;79;25645;-86
2021/10/18 13:50:54;;;;;;;;;;;;;;;10.99;84.83;99112.18;1777050;79;20870;-87
2021/10/18 13:53:20;;;;;;;;;;;;;;;10.99;84.83;99118.73;1777658;79;20441;-86
2021/10/18 13:55:49;;;;;;;;;;;;;;;10.98;84.81;99114.88;1773804;79;25128;-87
2021/10/18 13:58:15;;;;;;;;;;;;;;;10.95;84.77;99114.62;1777158;79;22065;-87
2021/10/18 14:00:43;;;;;;;;;;;;;;;10.94;84.72;99121.25;1779720;78;21652;-86
2021/10/18 14:03:10;;;;;;;;;;;;;;;10.96;84.70;99121.55;1780406;78;24495;-87
2021/10/18 14:05:36;;;;;;;;;;;;;;;11.01;84.67;99123.42;1774992;80;20464;-87
2021/10/18 14:08:02;;;;;;;;;;;;;;;11.03;84.67;99116.75;1777790;80;20220;-86
2021/10/18 14:10:28;;;;;;;;;;;;;;;11.05;84.66;99116.20;1782823;78;21992;-86